Janet — 9HSL8 — position and weather

sailwx.info

Track history (hours):
 
Tides and Currents Weather Stations Pressure Air Temp Water Temp Dewpoint Dewpoint Depression Visibility Wind Speed Wind Dir Waves Ship Positions

Janet

Last reported at 2014-Aug-26 21:15 UTC. Time now 2014-Aug-28 07:23 UTC.
Position N 31°20' E 030°05'.

Length 90 m; draft 6.1 m.

Type: Cargo ship. MMSI: 256371000.

Date/timePositionNaut miles runAvg speedWind from/ knotsBaromVisibWave heightAir tempDewpointWater temp
2014-Aug-26 21:15N 31°20' E 030°05'0 0.0
2014-Aug-26 20:33N 31°20' E 030°05'0 0.0
2014-Aug-26 11:24N 31°20' E 030°05'0 0.0
2014-Aug-26 01:33N 31°20' E 030°05'0 0.0
2014-Aug-26 00:28N 31°20' E 030°05'0 0.0
2014-Aug-25 18:06N 31°20' E 030°05'0 0.0
2014-Aug-25 13:09N 31°20' E 030°05'0 0.0
2014-Aug-25 12:33N 31°20' E 030°05'85 4.5
2014-Aug-24 17:33N 31°52' E 028°33'19 9.6
2014-Aug-24 15:33N 31°60' E 028°12'10 9.4
2014-Aug-24 14:28N 32°03' E 028°01'  
2014-Aug-21 20:11N 35°52' E 015°59'6 9.0
2014-Aug-21 19:32N 35°54' E 015°52'9 8.9
2014-Aug-21 18:32N 35°58' E 015°42'9 9.0
2014-Aug-21 17:30N 36°01' E 015°31'9 9.1
2014-Aug-21 16:33N 36°04' E 015°21'9 9.3
2014-Aug-21 15:33N 36°07' E 015°11'9 9.0
2014-Aug-21 14:33N 36°10' E 014°60'9 9.0
2014-Aug-21 13:33N 36°13' E 014°50'9 9.0
2014-Aug-21 12:33N 36°16' E 014°39'9 9.3
2014-Aug-21 11:33N 36°19' E 014°28'9 9.4
2014-Aug-21 10:33N 36°22' E 014°17'9 9.4
2014-Aug-21 09:33N 36°25' E 014°06'10 9.3
2014-Aug-21 08:28N 36°29' E 013°54'10 9.4
2014-Aug-21 07:27N 36°32' E 013°43'8 9.5
2014-Aug-21 06:33N 36°35' E 013°33'10 9.4
2014-Aug-21 05:31N 36°38' E 013°22'9 9.4
2014-Aug-21 04:33N 36°40' E 013°11'9 9.2
2014-Aug-21 03:33N 36°42' E 012°60'9 9.4
2014-Aug-21 02:33N 36°46' E 012°49'9 9.1
2014-Aug-21 01:33N 36°49' E 012°38'9 9.2
2014-Aug-21 00:33N 36°53' E 012°28'9 9.4
2014-Aug-20 23:33N 36°57' E 012°17'69 9.7
2014-Aug-20 16:22N 37°26' E 010°58'10 9.9
2014-Aug-20 15:24N 37°29' E 010°46'8 9.9
2014-Aug-20 14:33N 37°30' E 010°36'1010.2
2014-Aug-20 13:33N 37°33' E 010°23'374 9.5
2014-Aug-18 22:11N 37°03' E 002°34'44 9.0
2014-Aug-18 17:16N 36°54' E 001°40'7 9.2
2014-Aug-18 16:32N 36°53' E 001°31'69 8.3
2014-Aug-18 08:13N 36°39' E 000°07'49 7.4
2014-Aug-18 01:32N 36°30' W 000°54'216 8.0
2014-Aug-16 22:31N 35°56' W 005°17'2 2.3
2014-Aug-16 21:32N 35°54' W 005°19'  
Track history (hours):
 
Tides and Currents Weather Stations Pressure Air Temp Water Temp Dewpoint Dewpoint Depression Visibility Wind Speed Wind Dir Waves Ship Positions

Janet

Last reported at 2014-Aug-26 21:15 UTC. Time now 2014-Aug-28 07:23 UTC.
Position N 31°20' E 030°05'.

Length 90 m; draft 6.1 m.

Type: Cargo ship. MMSI: 256371000.

Date/timePositionNaut miles runAvg speedWind from/ knotsBaromVisibWave heightAir tempDewpointWater temp
2014-Aug-26 21:15N 31°20' E 030°05'0 0.0
2014-Aug-26 20:33N 31°20' E 030°05'0 0.0
2014-Aug-26 11:24N 31°20' E 030°05'0 0.0
2014-Aug-26 01:33N 31°20' E 030°05'0 0.0
2014-Aug-26 00:28N 31°20' E 030°05'0 0.0
2014-Aug-25 18:06N 31°20' E 030°05'0 0.0
2014-Aug-25 13:09N 31°20' E 030°05'0 0.0
2014-Aug-25 12:33N 31°20' E 030°05'85 4.5
2014-Aug-24 17:33N 31°52' E 028°33'19 9.6
2014-Aug-24 15:33N 31°60' E 028°12'10 9.4
2014-Aug-24 14:28N 32°03' E 028°01'  
2014-Aug-21 20:11N 35°52' E 015°59'6 9.0
2014-Aug-21 19:32N 35°54' E 015°52'9 8.9
2014-Aug-21 18:32N 35°58' E 015°42'9 9.0
2014-Aug-21 17:30N 36°01' E 015°31'9 9.1
2014-Aug-21 16:33N 36°04' E 015°21'9 9.3
2014-Aug-21 15:33N 36°07' E 015°11'9 9.0
2014-Aug-21 14:33N 36°10' E 014°60'9 9.0
2014-Aug-21 13:33N 36°13' E 014°50'9 9.0
2014-Aug-21 12:33N 36°16' E 014°39'9 9.3
2014-Aug-21 11:33N 36°19' E 014°28'9 9.4
2014-Aug-21 10:33N 36°22' E 014°17'9 9.4
2014-Aug-21 09:33N 36°25' E 014°06'10 9.3
2014-Aug-21 08:28N 36°29' E 013°54'10 9.4
2014-Aug-21 07:27N 36°32' E 013°43'8 9.5
2014-Aug-21 06:33N 36°35' E 013°33'10 9.4
2014-Aug-21 05:31N 36°38' E 013°22'9 9.4
2014-Aug-21 04:33N 36°40' E 013°11'9 9.2
2014-Aug-21 03:33N 36°42' E 012°60'9 9.4
2014-Aug-21 02:33N 36°46' E 012°49'9 9.1
2014-Aug-21 01:33N 36°49' E 012°38'9 9.2
2014-Aug-21 00:33N 36°53' E 012°28'9 9.4
2014-Aug-20 23:33N 36°57' E 012°17'69 9.7
2014-Aug-20 16:22N 37°26' E 010°58'10 9.9
2014-Aug-20 15:24N 37°29' E 010°46'8 9.9
2014-Aug-20 14:33N 37°30' E 010°36'1010.2
2014-Aug-20 13:33N 37°33' E 010°23'374 9.5
2014-Aug-18 22:11N 37°03' E 002°34'44 9.0
2014-Aug-18 17:16N 36°54' E 001°40'7 9.2
2014-Aug-18 16:32N 36°53' E 001°31'69 8.3
2014-Aug-18 08:13N 36°39' E 000°07'49 7.4
2014-Aug-18 01:32N 36°30' W 000°54'216 8.0
2014-Aug-16 22:31N 35°56' W 005°17'2 2.3
2014-Aug-16 21:32N 35°54' W 005°19'  

Dump ship's entire track history